Time;durP1;ratioP1;P1;durP2;ratioP2;P2;SDS_P1;SDS_P2;PMS_P1;PMS_P2;Temp;Humidity;BMP_temperature;BMP_pressure;BME280_temperature;BME280_humidity;BME280_pressure;Samples;Min_cycle;Max_cycle;Signal;HPM_P1;HPM_P2
2023/11/06 00:00:38;;;;;;;2.05;0.77;;;12.80;99.90;;;;;;10023232;28;20113;-77
2023/11/06 00:05:29;;;;;;;3.00;0.60;;;12.80;99.90;;;;;;10029149;28;20056;-81
2023/11/06 00:10:20;;;;;;;1.00;0.63;;;12.70;99.90;;;;;;10020599;28;20069;-84
2023/11/06 00:15:14;;;;;;;4.57;0.75;;;12.80;99.90;;;;;;10023728;28;20049;-80
2023/11/06 00:20:10;;;;;;;1.58;0.60;;;12.70;99.90;;;;;;10017004;28;20018;-79
2023/11/06 00:25:02;;;;;;;0.68;0.45;;;12.70;99.90;;;;;;10024698;28;20464;-83
2023/11/06 00:29:53;;;;;;;1.73;0.70;;;12.70;99.90;;;;;;10026613;28;20097;-87
2023/11/06 00:34:44;;;;;;;4.65;0.68;;;12.70;99.90;;;;;;9996720;28;20077;-81
2023/11/06 00:39:37;;;;;;;2.28;0.57;;;12.60;99.90;;;;;;10003281;28;20041;-82
2023/11/06 00:44:28;;;;;;;1.63;0.90;;;12.60;99.90;;;;;;10024950;28;20448;-80
2023/11/06 00:49:19;;;;;;;5.75;1.20;;;12.60;99.90;;;;;;10021028;28;20113;-79
2023/11/06 00:54:10;;;;;;;0.90;0.60;;;12.50;99.90;;;;;;10020438;28;20141;-78
2023/11/06 00:59:02;;;;;;;2.17;0.63;;;12.50;99.90;;;;;;10019257;28;20101;-81
2023/11/06 01:03:54;;;;;;;0.32;0.32;;;12.50;99.90;;;;;;10020569;28;20587;-81
2023/11/06 01:08:45;;;;;;;1.80;0.70;;;12.50;99.90;;;;;;10015750;28;20080;-78
2023/11/06 01:13:35;;;;;;;1.98;0.77;;;12.50;99.90;;;;;;10021815;28;20463;-78
2023/11/06 01:18:26;;;;;;;1.35;0.75;;;12.50;99.90;;;;;;10019626;28;20022;-77
2023/11/06 01:23:16;;;;;;;2.78;0.65;;;12.60;99.90;;;;;;10019098;28;20072;-78
2023/11/06 01:28:07;;;;;;;2.22;0.80;;;12.40;99.90;;;;;;10023857;28;20373;-79
2023/11/06 01:33:00;;;;;;;2.40;0.70;;;12.40;99.90;;;;;;10022806;28;20038;-81
2023/11/06 01:37:50;;;;;;;1.75;1.45;;;12.30;99.90;;;;;;10020668;28;20026;-81
2023/11/06 01:42:41;;;;;;;1.40;0.55;;;12.40;99.90;;;;;;10023621;28;20147;-78
2023/11/06 01:47:32;;;;;;;0.98;0.68;;;12.40;99.90;;;;;;10019218;28;20022;-83
2023/11/06 01:52:23;;;;;;;2.97;0.80;;;12.40;99.90;;;;;;10019210;28;20095;-81
2023/11/06 01:57:17;;;;;;;1.20;0.40;;;12.30;99.90;;;;;;10018145;28;20091;-82
2023/11/06 02:02:09;;;;;;;0.40;0.40;;;12.20;99.90;;;;;;10020650;28;20076;-81
2023/11/06 02:07:00;;;;;;;3.53;0.70;;;12.10;99.90;;;;;;10013658;28;20033;-82
2023/11/06 02:11:51;;;;;;;1.40;0.60;;;12.10;99.90;;;;;;10025049;28;20404;-87
2023/11/06 02:16:41;;;;;;;0.70;0.55;;;12.00;99.90;;;;;;10024555;28;20104;-90
2023/11/06 02:21:32;;;;;;;1.38;0.45;;;12.00;99.90;;;;;;10020115;28;20499;-80
2023/11/06 02:26:23;;;;;;;1.15;0.50;;;12.10;99.90;;;;;;10017700;28;20021;-79
2023/11/06 02:31:13;;;;;;;1.60;0.50;;;12.10;99.90;;;;;;10017712;28;20053;-85
2023/11/06 02:36:04;;;;;;;0.52;0.40;;;12.10;99.90;;;;;;10016917;28;20032;-83
2023/11/06 02:40:57;;;;;;;3.90;0.60;;;12.10;99.90;;;;;;10016324;28;20061;-78
2023/11/06 02:45:48;;;;;;;3.05;0.40;;;12.10;99.90;;;;;;10017166;28;20049;-83
2023/11/06 02:50:39;;;;;;;0.85;0.75;;;12.10;99.90;;;;;;10024407;28;20398;-79
2023/11/06 02:55:29;;;;;;;0.50;0.35;;;12.10;99.90;;;;;;10021721;28;20018;-84
2023/11/06 03:00:20;;;;;;;1.65;0.60;;;12.20;99.90;;;;;;10018108;28;20187;-79
2023/11/06 03:05:11;;;;;;;1.52;0.45;;;12.10;99.90;;;;;;10000014;28;20630;-86
2023/11/06 03:10:03;;;;;;;2.17;0.70;;;12.10;99.90;;;;;;10016189;28;20064;-82
2023/11/06 03:14:53;;;;;;;0.77;0.70;;;12.20;99.90;;;;;;10017152;28;20423;-84
2023/11/06 03:19:44;;;;;;;2.05;0.40;;;12.20;99.90;;;;;;10016496;28;20531;-79
2023/11/06 03:24:35;;;;;;;2.53;0.57;;;12.20;99.90;;;;;;10011950;28;20032;-79
2023/11/06 03:29:25;;;;;;;3.30;0.55;;;12.20;99.90;;;;;;10020796;28;20058;-81
2023/11/06 03:34:16;;;;;;;1.10;0.40;;;12.10;99.90;;;;;;10030563;28;20033;-80
2023/11/06 03:39:07;;;;;;;1.15;1.05;;;12.10;99.90;;;;;;10017954;28;20034;-82
2023/11/06 03:43:58;;;;;;;2.38;0.73;;;12.20;99.90;;;;;;10023395;28;20137;-83
2023/11/06 03:48:48;;;;;;;1.75;0.88;;;12.20;99.90;;;;;;10022903;28;20160;-80
2023/11/06 03:53:39;;;;;;;1.50;0.40;;;12.20;99.90;;;;;;10021288;28;20100;-82
2023/11/06 03:58:30;;;;;;;0.73;0.50;;;12.30;99.90;;;;;;10024082;28;20026;-84
2023/11/06 04:03:20;;;;;;;1.40;0.55;;;12.20;99.90;;;;;;10009928;28;20044;-85
2023/11/06 04:08:11;;;;;;;3.45;0.60;;;12.20;99.90;;;;;;10027058;28;20018;-84
2023/11/06 04:13:01;;;;;;;0.77;0.40;;;12.20;99.90;;;;;;10025502;28;20045;-85
2023/11/06 04:17:52;;;;;;;1.27;0.45;;;12.10;99.90;;;;;;10023509;28;20021;-85
2023/11/06 04:22:43;;;;;;;3.78;0.65;;;12.10;99.90;;;;;;10021797;28;20519;-85
2023/11/06 04:27:33;;;;;;;0.45;0.20;;;12.10;99.90;;;;;;10021229;28;20038;-77
2023/11/06 04:32:24;;;;;;;2.50;0.52;;;12.20;99.90;;;;;;10020109;28;20045;-84
2023/11/06 04:37:15;;;;;;;2.05;0.40;;;12.10;99.90;;;;;;10022994;28;20660;-86
2023/11/06 04:42:09;;;;;;;0.73;0.45;;;12.10;99.90;;;;;;10007521;28;20060;-87
2023/11/06 04:47:00;;;;;;;0.40;0.40;;;12.10;99.90;;;;;;10043744;28;20061;-86
2023/11/06 04:51:51;;;;;;;1.08;0.52;;;12.10;99.90;;;;;;10035926;28;20037;-87
2023/11/06 04:56:47;;;;;;;1.10;0.50;;;12.10;99.90;;;;;;10034982;28;20079;-87
2023/11/06 05:01:37;;;;;;;0.90;0.30;;;12.10;99.90;;;;;;10050551;28;20021;-84
2023/11/06 05:06:28;;;;;;;1.02;0.30;;;12.10;99.90;;;;;;10038710;28;20041;-87
2023/11/06 05:11:19;;;;;;;1.52;0.55;;;12.10;99.90;;;;;;10008529;28;20096;-87
2023/11/06 05:16:10;;;;;;;0.55;0.20;;;12.20;99.90;;;;;;10021117;28;20076;-81
2023/11/06 05:21:01;;;;;;;1.08;0.35;;;12.20;99.90;;;;;;10019159;28;20488;-79
2023/11/06 05:25:53;;;;;;;0.30;0.30;;;12.20;99.90;;;;;;10023041;28;20065;-85
2023/11/06 05:30:44;;;;;;;1.42;0.45;;;12.20;99.90;;;;;;10040572;28;20056;-81
2023/11/06 05:35:35;;;;;;;3.00;0.43;;;12.20;99.90;;;;;;9995435;28;20526;-84
2023/11/06 05:40:25;;;;;;;2.08;0.60;;;12.20;99.90;;;;;;10020815;28;20104;-80
2023/11/06 05:45:16;;;;;;;1.30;0.52;;;12.30;99.90;;;;;;10018047;28;20434;-79
2023/11/06 05:50:07;;;;;;;0.43;0.35;;;12.20;99.90;;;;;;10000064;28;20038;-83
2023/11/06 05:54:58;;;;;;;2.17;0.80;;;12.10;99.90;;;;;;10008632;28;20358;-83
2023/11/06 05:59:48;;;;;;;1.90;1.00;;;12.10;99.90;;;;;;10018206;28;20030;-79
2023/11/06 06:04:39;;;;;;;3.75;0.70;;;12.10;99.90;;;;;;10017512;28;20029;-84
2023/11/06 06:09:30;;;;;;;3.55;0.90;;;12.10;99.90;;;;;;10011606;28;20032;-76
2023/11/06 06:14:21;;;;;;;2.97;0.90;;;12.10;99.90;;;;;;10017959;28;20053;-77
2023/11/06 06:19:12;;;;;;;2.42;0.77;;;12.10;99.90;;;;;;10011415;28;20133;-79
2023/11/06 06:24:03;;;;;;;4.15;0.63;;;12.10;99.90;;;;;;10010636;28;20104;-77
2023/11/06 06:28:54;;;;;;;2.63;0.70;;;12.10;99.90;;;;;;10015281;28;20088;-76
2023/11/06 06:33:45;;;;;;;2.78;0.70;;;12.10;99.90;;;;;;9996786;28;20463;-76
2023/11/06 06:38:35;;;;;;;0.55;0.45;;;12.10;99.90;;;;;;10019720;28;20026;-77
2023/11/06 06:43:26;;;;;;;2.03;0.60;;;12.00;99.90;;;;;;10011493;28;20034;-76
2023/11/06 06:48:17;;;;;;;1.63;0.90;;;12.00;99.90;;;;;;10016197;28;20026;-78
2023/11/06 06:53:08;;;;;;;0.85;0.60;;;12.00;99.90;;;;;;10014414;28;20038;-77
2023/11/06 06:57:59;;;;;;;3.55;0.70;;;12.00;99.90;;;;;;10022454;28;20038;-81
2023/11/06 07:02:50;;;;;;;0.60;0.60;;;12.10;99.90;;;;;;10023741;28;20396;-80
2023/11/06 07:07:40;;;;;;;2.22;0.50;;;12.10;99.90;;;;;;10024106;28;20037;-78
2023/11/06 07:12:31;;;;;;;1.17;0.63;;;12.20;99.90;;;;;;10023130;28;20034;-78
2023/11/06 07:17:22;;;;;;;2.00;0.50;;;12.20;99.90;;;;;;10021549;28;20030;-80
2023/11/06 07:22:12;;;;;;;1.63;0.52;;;12.10;99.90;;;;;;10027209;28;20065;-78
2023/11/06 07:27:03;;;;;;;2.00;0.90;;;12.20;99.90;;;;;;10022774;28;20105;-81
2023/11/06 07:31:54;;;;;;;2.13;0.70;;;12.10;99.90;;;;;;10001065;28;20080;-79
2023/11/06 07:36:45;;;;;;;1.00;0.73;;;12.20;99.90;;;;;;10022075;28;20050;-76
2023/11/06 07:41:36;;;;;;;1.27;0.80;;;12.10;99.90;;;;;;10021151;28;20511;-79
2023/11/06 07:46:26;;;;;;;1.50;0.50;;;12.00;99.90;;;;;;10004806;28;20113;-79
2023/11/06 07:51:17;;;;;;;0.77;0.60;;;12.00;99.90;;;;;;10021671;28;20033;-80
2023/11/06 07:56:13;;;;;;;0.80;0.60;;;12.10;99.90;;;;;;10005474;28;20450;-77
2023/11/06 08:01:04;;;;;;;0.90;0.70;;;12.20;99.90;;;;;;9989062;28;20046;-74
2023/11/06 08:05:55;;;;;;;2.17;0.93;;;12.10;99.90;;;;;;10001687;28;20034;-72
2023/11/06 08:10:46;;;;;;;2.95;1.10;;;12.10;99.90;;;;;;10016726;28;20045;-71
2023/11/06 08:15:37;;;;;;;2.22;0.77;;;12.20;99.90;;;;;;9999615;28;20037;-71
2023/11/06 08:20:28;;;;;;;1.23;0.60;;;12.10;99.90;;;;;;10020912;28;20025;-70
2023/11/06 08:25:19;;;;;;;1.83;1.17;;;12.10;99.90;;;;;;10020402;28;20084;-70
2023/11/06 08:30:12;;;;;;;1.08;0.60;;;12.10;99.90;;;;;;10020260;28;20092;-70
2023/11/06 08:35:05;;;;;;;0.90;0.50;;;12.20;99.90;;;;;;10020877;28;20586;-70
2023/11/06 08:39:56;;;;;;;0.93;0.55;;;12.30;99.90;;;;;;10018746;28;20403;-73
2023/11/06 08:44:46;;;;;;;3.97;0.43;;;12.30;99.90;;;;;;10018365;28;20037;-73
2023/11/06 08:49:38;;;;;;;0.75;0.55;;;12.40;99.90;;;;;;10019313;28;20036;-72
2023/11/06 08:54:30;;;;;;;1.58;0.60;;;12.40;99.90;;;;;;10018996;28;20590;-72
2023/11/06 08:59:21;;;;;;;1.95;0.60;;;12.60;99.90;;;;;;10015729;28;20116;-73
2023/11/06 09:04:12;;;;;;;1.70;0.60;;;12.70;99.90;;;;;;10018649;28;20094;-73
2023/11/06 09:09:04;;;;;;;2.95;0.70;;;12.80;99.90;;;;;;10010151;28;20030;-72
2023/11/06 09:13:55;;;;;;;3.30;0.98;;;12.90;99.90;;;;;;10012574;28;20034;-73
2023/11/06 09:18:46;;;;;;;1.80;0.50;;;12.90;99.90;;;;;;10015916;28;20415;-74
2023/11/06 09:23:37;;;;;;;2.88;0.95;;;12.90;99.90;;;;;;10015865;28;20058;-72
2023/11/06 09:28:28;;;;;;;1.63;1.13;;;12.90;99.90;;;;;;9997522;28;20026;-72
2023/11/06 09:33:19;;;;;;;0.98;0.55;;;12.90;99.90;;;;;;10016873;28;20119;-73
2023/11/06 09:38:09;;;;;;;1.05;0.40;;;12.80;99.90;;;;;;10017199;28;20030;-73
2023/11/06 09:43:00;;;;;;;1.30;0.50;;;13.00;99.90;;;;;;10016382;28;20483;-71
2023/11/06 09:47:52;;;;;;;0.60;0.50;;;12.90;99.90;;;;;;10016759;28;20076;-72
2023/11/06 09:52:43;;;;;;;2.17;0.73;;;12.90;99.90;;;;;;10014536;28;20069;-72
2023/11/06 09:57:34;;;;;;;1.67;0.73;;;13.00;99.90;;;;;;10015649;28;20022;-74
2023/11/06 10:02:25;;;;;;;2.05;0.63;;;13.00;99.90;;;;;;10016440;28;20030;-72
2023/11/06 10:07:45;;;;;;;1.55;0.55;;;13.10;99.90;;;;;;9994099;28;20107;-74
2023/11/06 10:12:36;;;;;;;1.90;0.70;;;13.20;99.90;;;;;;10014352;28;20074;-74
2023/11/06 10:17:27;;;;;;;2.70;1.50;;;13.20;99.90;;;;;;10012528;28;20026;-72
2023/11/06 10:22:18;;;;;;;4.70;1.45;;;13.20;99.90;;;;;;10016767;28;20025;-73
2023/11/06 10:27:21;;;;;;;1.25;0.52;;;13.20;99.90;;;;;;9998719;28;20404;-72
2023/11/06 10:32:26;;;;;;;1.10;0.60;;;13.20;99.90;;;;;;10013570;28;20095;-74
2023/11/06 10:37:17;;;;;;;1.67;0.50;;;13.20;99.90;;;;;;10012536;28;20026;-73
2023/11/06 10:42:11;;;;;;;3.20;0.55;;;13.20;99.90;;;;;;10014433;28;20046;-73
2023/11/06 10:47:09;;;;;;;3.67;0.70;;;13.20;99.90;;;;;;10011737;28;20022;-73
2023/11/06 10:52:07;;;;;;;2.28;0.98;;;13.10;99.90;;;;;;10017241;28;20058;-72
2023/11/06 10:56:59;;;;;;;2.65;0.70;;;13.10;99.90;;;;;;10015244;28;20101;-73
2023/11/06 11:01:54;;;;;;;2.05;0.70;;;13.00;99.90;;;;;;10014672;28;20034;-73
2023/11/06 11:06:46;;;;;;;2.03;0.63;;;13.00;99.90;;;;;;10009286;28;20080;-72
2023/11/06 11:11:39;;;;;;;1.60;0.77;;;13.00;99.90;;;;;;10014181;28;20796;-74
2023/11/06 11:16:41;;;;;;;4.60;0.77;;;13.00;99.90;;;;;;10014519;28;20030;-73
2023/11/06 11:22:03;;;;;;;1.60;0.60;;;13.10;99.90;;;;;;10016290;28;20478;-72
2023/11/06 11:27:11;;;;;;;1.67;0.80;;;13.10;99.90;;;;;;10013783;28;20030;-72
2023/11/06 11:32:08;;;;;;;15.20;7.72;;;13.20;99.90;;;;;;10012075;28;20030;-72
2023/11/06 11:37:19;;;;;;;6.72;3.75;;;13.20;99.90;;;;;;9996815;28;20026;-72
2023/11/06 11:42:12;;;;;;;2.53;1.05;;;13.30;99.90;;;;;;10016616;28;20175;-72
2023/11/06 11:47:03;;;;;;;2.60;1.00;;;13.30;99.90;;;;;;10018633;28;20231;-73
2023/11/06 11:51:54;;;;;;;1.85;0.82;;;13.30;99.90;;;;;;9997818;28;20037;-73
2023/11/06 11:56:49;;;;;;;3.42;0.77;;;13.40;99.90;;;;;;10016063;28;20042;-74
2023/11/06 12:01:40;;;;;;;1.02;0.52;;;13.30;99.90;;;;;;10017517;28;20021;-75
2023/11/06 12:06:32;;;;;;;1.95;0.88;;;13.40;99.90;;;;;;10008685;28;20515;-73
2023/11/06 12:11:22;;;;;;;1.20;0.80;;;13.30;99.90;;;;;;10003695;28;20042;-73
2023/11/06 12:16:14;;;;;;;2.05;1.00;;;13.40;99.90;;;;;;9998600;28;20034;-72
2023/11/06 12:21:05;;;;;;;3.05;1.30;;;13.40;99.90;;;;;;9996580;28;20229;-74
2023/11/06 12:25:56;;;;;;;1.88;0.93;;;13.40;99.90;;;;;;10011242;28;20543;-80
2023/11/06 12:30:52;;;;;;;2.75;1.30;;;13.50;99.90;;;;;;10008096;28;20093;-77
2023/11/06 12:35:45;;;;;;;3.50;0.80;;;13.60;99.90;;;;;;10016475;28;20022;-79
2023/11/06 12:40:43;;;;;;;2.13;0.95;;;13.60;99.90;;;;;;10014903;28;20605;-74
2023/11/06 12:45:36;;;;;;;4.00;1.23;;;13.60;99.90;;;;;;10014881;28;20141;-73
2023/11/06 12:50:28;;;;;;;3.92;1.33;;;13.60;99.90;;;;;;10014656;28;20236;-77
2023/11/06 12:55:19;;;;;;;1.52;0.90;;;13.70;99.90;;;;;;9997895;28;20041;-75
2023/11/06 13:00:22;;;;;;;2.30;1.05;;;13.60;99.90;;;;;;10015123;28;20037;-74
2023/11/06 13:05:12;;;;;;;2.20;0.80;;;13.70;99.90;;;;;;10010048;28;20026;-76
2023/11/06 13:10:05;;;;;;;1.00;0.63;;;13.80;99.90;;;;;;10011439;28;20101;-76
2023/11/06 13:14:57;;;;;;;2.88;0.80;;;13.90;99.90;;;;;;10017477;28;20025;-74
2023/11/06 13:19:48;;;;;;;3.45;0.90;;;13.90;99.90;;;;;;10017209;28;20040;-75
2023/11/06 13:24:40;;;;;;;1.08;0.63;;;13.90;99.90;;;;;;10017417;28;20105;-76
2023/11/06 13:29:31;;;;;;;1.33;0.77;;;13.90;99.90;;;;;;10018220;28;20057;-75
2023/11/06 13:34:21;;;;;;;1.02;0.60;;;13.90;99.90;;;;;;9999898;28;20068;-73
2023/11/06 13:39:14;;;;;;;1.50;0.70;;;13.80;99.90;;;;;;10017148;28;20026;-75
2023/11/06 13:44:09;;;;;;;1.30;0.60;;;13.80;99.90;;;;;;10016569;28;20439;-73
2023/11/06 13:49:00;;;;;;;0.75;0.45;;;13.80;99.90;;;;;;10017502;28;20036;-74
2023/11/06 13:53:51;;;;;;;1.00;0.47;;;13.90;99.90;;;;;;10014356;28;20353;-75
2023/11/06 13:58:42;;;;;;;0.98;0.57;;;13.80;99.90;;;;;;10016916;28;20109;-75
2023/11/06 14:03:36;;;;;;;1.55;0.60;;;13.80;99.90;;;;;;10016890;28;20018;-74
2023/11/06 14:08:28;;;;;;;1.17;0.45;;;13.80;99.90;;;;;;9998530;28;20438;-77
2023/11/06 14:13:23;;;;;;;12.00;5.50;;;13.70;99.90;;;;;;10016707;28;20034;-73
2023/11/06 14:18:14;;;;;;;62.88;32.72;;;13.80;99.90;;;;;;10016420;28;20516;-73
2023/11/06 14:23:04;;;;;;;15.40;7.53;;;13.90;99.90;;;;;;10023281;28;20036;-74
2023/11/06 14:27:55;;;;;;;3.42;1.15;;;13.90;99.90;;;;;;9998479;28;20492;-74
2023/11/06 14:32:46;;;;;;;1.25;0.80;;;13.80;99.90;;;;;;10008010;28;20459;-73
2023/11/06 14:37:41;;;;;;;0.60;0.38;;;13.70;99.90;;;;;;10018300;28;20577;-74
2023/11/06 14:42:32;;;;;;;1.15;0.68;;;13.50;99.90;;;;;;10015277;28;20227;-74
2023/11/06 14:47:23;;;;;;;1.70;0.40;;;13.40;99.90;;;;;;10009119;28;20049;-74
2023/11/06 14:52:14;;;;;;;0.60;0.60;;;13.40;99.90;;;;;;10012976;28;20097;-73
2023/11/06 14:57:05;;;;;;;1.00;0.50;;;13.40;99.90;;;;;;10014916;28;20534;-74
2023/11/06 15:01:55;;;;;;;0.55;0.40;;;13.40;99.90;;;;;;10015130;28;20072;-73
2023/11/06 15:06:49;;;;;;;1.95;0.60;;;13.30;99.90;;;;;;10009712;28;20033;-72
2023/11/06 15:11:39;;;;;;;0.50;0.30;;;13.40;99.90;;;;;;10015143;28;20404;-72
2023/11/06 15:16:30;;;;;;;0.75;0.50;;;13.40;99.90;;;;;;10017400;28;20018;-72
2023/11/06 15:21:21;;;;;;;0.32;0.30;;;13.50;99.90;;;;;;10020348;28;20041;-73
2023/11/06 15:26:14;;;;;;;1.08;0.60;;;13.50;99.90;;;;;;10004470;28;20194;-73
2023/11/06 15:31:05;;;;;;;0.60;0.30;;;13.30;99.90;;;;;;10025477;28;20034;-72
2023/11/06 15:35:55;;;;;;;0.32;0.32;;;13.30;99.90;;;;;;10021990;28;20033;-73
2023/11/06 15:40:46;;;;;;;0.75;0.20;;;13.40;99.90;;;;;;10020785;28;20136;-71
2023/11/06 15:45:36;;;;;;;0.77;0.30;;;13.30;99.90;;;;;;10002935;28;20108;-71
2023/11/06 15:50:30;;;;;;;0.57;0.40;;;13.20;99.90;;;;;;10019290;28;20034;-72
2023/11/06 15:55:21;;;;;;;1.95;0.30;;;13.00;99.90;;;;;;10020813;28;20018;-72
2023/11/06 16:00:12;;;;;;;0.20;0.20;;;12.70;99.90;;;;;;10021668;28;20041;-72
2023/11/06 16:05:03;;;;;;;1.15;0.15;;;12.40;99.90;;;;;;10021070;28;20026;-72
2023/11/06 16:09:54;;;;;;;0.68;0.30;;;12.40;99.90;;;;;;10021080;28;20072;-72
2023/11/06 16:14:45;;;;;;;0.50;0.40;;;12.50;99.90;;;;;;10005232;28;20108;-72
2023/11/06 16:19:36;;;;;;;1.42;0.63;;;12.50;99.90;;;;;;10004063;28;20049;-74
2023/11/06 16:24:28;;;;;;;0.68;0.65;;;12.60;99.90;;;;;;10003387;28;20023;-74
2023/11/06 16:29:21;;;;;;;1.50;0.40;;;12.70;99.90;;;;;;10025267;28;20030;-72
2023/11/06 16:34:12;;;;;;;25.50;12.95;;;12.70;99.90;;;;;;10020313;28;20034;-71
2023/11/06 16:39:04;;;;;;;4.90;3.15;;;12.80;99.90;;;;;;10019439;28;20029;-71
2023/11/06 16:43:57;;;;;;;2.10;1.08;;;12.70;99.90;;;;;;10000473;28;20022;-76
2023/11/06 16:48:48;;;;;;;1.90;0.55;;;12.70;99.90;;;;;;10019541;28;20022;-76
2023/11/06 16:53:39;;;;;;;1.45;0.50;;;12.70;99.90;;;;;;10001290;28;20041;-77
2023/11/06 16:58:29;;;;;;;1.05;0.50;;;12.60;99.90;;;;;;10020087;28;20022;-79
2023/11/06 17:03:21;;;;;;;1.23;0.50;;;12.70;99.90;;;;;;10019367;28;20515;-79
2023/11/06 17:08:12;;;;;;;0.98;0.70;;;12.70;99.90;;;;;;10017545;28;20077;-77
2023/11/06 17:13:04;;;;;;;0.80;0.60;;;12.60;99.90;;;;;;10000853;28;20108;-86
2023/11/06 17:17:54;;;;;;;1.52;0.70;;;12.50;99.90;;;;;;10014710;28;20014;-81
2023/11/06 17:22:45;;;;;;;1.00;0.70;;;12.50;99.90;;;;;;10009563;28;20037;-83
2023/11/06 17:27:37;;;;;;;1.17;0.90;;;12.50;99.90;;;;;;10012429;28;20041;-76
2023/11/06 17:32:27;;;;;;;2.42;1.05;;;12.50;99.90;;;;;;10017491;28;20042;-79
2023/11/06 17:37:18;;;;;;;3.22;1.13;;;12.50;99.90;;;;;;10020809;28;20025;-81
2023/11/06 17:42:14;;;;;;;1.90;1.27;;;12.40;99.90;;;;;;10017005;28;20050;-80
2023/11/06 17:47:06;;;;;;;;;;;12.40;99.90;;;;;;10016280;28;20050;-81
2023/11/06 17:51:56;;;;;;;1.75;1.05;;;12.40;99.90;;;;;;10016604;28;19920;-83
2023/11/06 17:56:47;;;;;;;2.38;0.85;;;12.30;99.90;;;;;;10013683;28;20016;-80
2023/11/06 18:01:38;;;;;;;1.35;1.00;;;12.40;99.90;;;;;;10016796;28;20030;-85
2023/11/06 18:06:29;;;;;;;1.95;1.00;;;12.40;99.90;;;;;;10013285;28;20607;-84
2023/11/06 18:11:20;;;;;;;3.60;1.30;;;12.40;99.90;;;;;;10017237;28;20069;-84
2023/11/06 18:16:10;;;;;;;1.15;1.05;;;12.40;99.90;;;;;;10017419;28;20030;-86
2023/11/06 18:21:01;;;;;;;4.20;1.25;;;12.40;99.90;;;;;;10017199;28;20036;-82
2023/11/06 18:25:53;;;;;;;2.47;1.25;;;12.30;99.90;;;;;;10016509;28;20022;-82
2023/11/06 18:30:44;;;;;;;1.73;0.93;;;12.30;99.90;;;;;;10016497;28;20053;-82
2023/11/06 18:35:35;;;;;;;1.85;1.02;;;12.30;99.90;;;;;;9998676;28;20026;-84
2023/11/06 18:40:25;;;;;;;1.70;0.82;;;12.40;99.90;;;;;;10013287;28;20124;-85
2023/11/06 18:45:17;;;;;;;1.52;0.70;;;12.30;99.90;;;;;;10006419;28;20041;-84
2023/11/06 18:50:08;;;;;;;3.17;1.02;;;12.20;99.90;;;;;;10010909;28;20033;-80
2023/11/06 18:54:59;;;;;;;1.33;0.85;;;12.30;99.90;;;;;;10011611;28;20036;-86
2023/11/06 18:59:50;;;;;;;2.60;1.10;;;12.20;99.90;;;;;;9998580;28;20033;-84
2023/11/06 19:04:41;;;;;;;1.33;0.82;;;12.20;99.90;;;;;;9997725;28;20026;-84
2023/11/06 19:09:32;;;;;;;2.65;0.80;;;12.20;99.90;;;;;;10015357;28;20145;-85
2023/11/06 19:14:22;;;;;;;2.95;0.90;;;12.30;99.90;;;;;;10015375;28;20503;-85
2023/11/06 19:19:14;;;;;;;1.25;0.68;;;12.20;99.90;;;;;;9992938;28;20469;-84
2023/11/06 19:24:05;;;;;;;1.52;0.93;;;12.20;99.90;;;;;;9997465;28;20398;-84
2023/11/06 19:28:56;;;;;;;1.83;0.90;;;12.20;99.90;;;;;;10015238;28;20018;-79
2023/11/06 19:33:49;;;;;;;1.23;0.88;;;12.00;99.90;;;;;;10015482;28;20523;-85
2023/11/06 19:38:40;;;;;;;2.10;0.80;;;12.00;99.90;;;;;;10016871;28;20038;-84
2023/11/06 19:43:31;;;;;;;2.17;0.90;;;12.10;99.90;;;;;;9998545;28;20103;-83
2023/11/06 19:48:21;;;;;;;2.08;1.05;;;12.00;99.90;;;;;;10015438;28;20019;-83
2023/11/06 19:53:12;;;;;;;0.85;0.70;;;12.00;99.90;;;;;;10016293;28;20532;-85
2023/11/06 19:58:04;;;;;;;0.88;0.70;;;11.90;99.90;;;;;;10003793;28;20553;-84
2023/11/06 20:02:55;;;;;;;2.53;0.73;;;12.00;99.90;;;;;;10013335;28;20407;-83
2023/11/06 20:07:49;;;;;;;0.98;0.55;;;11.90;99.90;;;;;;10010641;28;20033;-85
2023/11/06 20:12:40;;;;;;;2.15;0.93;;;12.00;99.90;;;;;;10025090;28;20500;-83
2023/11/06 20:17:31;;;;;;;1.77;0.90;;;11.90;99.90;;;;;;10019468;28;20037;-82
2023/11/06 20:22:22;;;;;;;1.65;1.05;;;11.90;99.90;;;;;;10003922;28;20470;-81
2023/11/06 20:27:12;;;;;;;2.03;0.73;;;11.90;99.90;;;;;;10021890;28;20026;-82
2023/11/06 20:32:03;;;;;;;0.70;0.70;;;11.90;99.90;;;;;;10020432;28;20048;-84
2023/11/06 20:36:54;;;;;;;1.13;0.60;;;11.90;99.90;;;;;;10005938;28;20065;-84
2023/11/06 20:41:45;;;;;;;1.13;0.63;;;11.90;99.90;;;;;;10020635;28;20042;-79
2023/11/06 20:46:37;;;;;;;1.13;0.80;;;11.90;99.90;;;;;;10021161;28;20025;-83
2023/11/06 20:51:37;;;;;;;1.67;0.70;;;11.90;99.90;;;;;;10001943;28;20042;-84
2023/11/06 20:56:28;;;;;;;1.58;1.00;;;11.80;99.90;;;;;;10019314;28;20049;-82
2023/11/06 21:01:18;;;;;;;1.20;0.70;;;11.80;99.90;;;;;;10019463;28;20077;-84
2023/11/06 21:06:09;;;;;;;1.10;0.70;;;11.90;99.90;;;;;;10000411;28;20025;-85
2023/11/06 21:11:00;;;;;;;1.60;0.70;;;11.80;99.90;;;;;;10022357;28;20088;-85
2023/11/06 21:15:51;;;;;;;0.98;0.88;;;11.80;99.90;;;;;;10020304;28;20022;-84
2023/11/06 21:20:42;;;;;;;1.58;1.02;;;11.70;99.90;;;;;;10018882;28;20037;-85
2023/11/06 21:25:33;;;;;;;2.63;1.35;;;11.80;99.90;;;;;;9999483;28;20018;-85
2023/11/06 21:30:24;;;;;;;1.70;0.75;;;11.70;99.90;;;;;;10020626;28;20084;-83
2023/11/06 21:35:14;;;;;;;2.80;0.80;;;11.70;99.90;;;;;;10018782;28;20508;-85
2023/11/06 21:40:06;;;;;;;0.98;0.70;;;11.70;99.90;;;;;;10003462;28;20046;-76
2023/11/06 21:44:57;;;;;;;1.52;0.70;;;11.60;99.90;;;;;;10008456;28;20026;-86
2023/11/06 21:49:48;;;;;;;1.60;0.73;;;11.70;99.90;;;;;;10014102;28;20029;-82
2023/11/06 21:54:38;;;;;;;1.00;0.80;;;11.70;99.90;;;;;;10014400;28;20388;-79
2023/11/06 21:59:29;;;;;;;2.30;0.85;;;11.70;99.90;;;;;;10021182;28;20077;-76
2023/11/06 22:04:20;;;;;;;0.93;0.60;;;11.60;99.90;;;;;;10019466;28;20029;-79
2023/11/06 22:09:11;;;;;;;1.23;0.60;;;11.60;99.90;;;;;;10014087;28;20143;-76
2023/11/06 22:14:01;;;;;;;1.48;0.98;;;11.60;99.90;;;;;;10016231;28;20041;-79
2023/11/06 22:18:54;;;;;;;1.70;0.85;;;11.50;99.90;;;;;;10016356;28;20022;-79
2023/11/06 22:23:45;;;;;;;1.58;0.75;;;11.60;99.90;;;;;;9995775;28;20034;-78
2023/11/06 22:28:36;;;;;;;2.35;0.80;;;11.50;99.90;;;;;;10015764;28;20490;-79
2023/11/06 22:33:27;;;;;;;1.50;0.93;;;11.60;99.90;;;;;;10017742;28;20034;-81
2023/11/06 22:38:18;;;;;;;1.65;0.90;;;11.40;99.90;;;;;;10010467;28;20495;-80
2023/11/06 22:43:09;;;;;;;1.80;0.90;;;11.40;99.90;;;;;;10009345;28;20054;-81
2023/11/06 22:48:00;;;;;;;1.52;0.75;;;11.40;99.90;;;;;;9991907;28;20473;-85
2023/11/06 22:52:51;;;;;;;2.17;1.08;;;11.40;99.90;;;;;;10005446;28;20214;-83
2023/11/06 22:57:43;;;;;;;3.60;1.20;;;11.40;99.90;;;;;;9998185;28;20109;-78
2023/11/06 23:02:35;;;;;;;1.58;0.90;;;11.30;99.90;;;;;;10016639;28;20034;-78
2023/11/06 23:07:25;;;;;;;1.67;1.08;;;11.30;99.90;;;;;;10009549;28;20026;-83
2023/11/06 23:12:16;;;;;;;1.65;1.10;;;11.30;99.90;;;;;;10014407;28;20090;-77
2023/11/06 23:17:07;;;;;;;2.47;1.23;;;11.30;99.90;;;;;;10018706;28;20028;-79
2023/11/06 23:21:57;;;;;;;0.85;0.65;;;11.30;99.90;;;;;;10014707;28;20026;-79
2023/11/06 23:26:48;;;;;;;1.45;1.05;;;11.20;99.90;;;;;;10014490;28;20519;-82
2023/11/06 23:31:39;;;;;;;1.38;1.05;;;11.20;99.90;;;;;;10002297;28;20080;-83
2023/11/06 23:36:30;;;;;;;1.92;0.88;;;11.10;99.90;;;;;;10012703;28;20033;-84
2023/11/06 23:41:21;;;;;;;1.77;0.63;;;11.10;99.90;;;;;;10020401;28;20068;-84
2023/11/06 23:46:12;;;;;;;4.20;0.90;;;11.10;99.90;;;;;;10024640;28;20026;-84
2023/11/06 23:51:03;;;;;;;0.95;0.70;;;11.10;99.90;;;;;;10022945;28;20038;-81
2023/11/06 23:55:54;;;;;;;2.42;0.90;;;11.00;99.90;;;;;;10022342;28;20487;-80
